sensor_id;sensor_type;location;lat;lon;timestamp;temperature;humidity
2012;DHT22;1009;51.436;6.972;2022-07-23T00:01:13;18.30;99.90
2012;DHT22;1009;51.436;6.972;2022-07-23T00:03:41;18.30;99.90
2012;DHT22;1009;51.436;6.972;2022-07-23T00:06:16;18.30;99.90
2012;DHT22;1009;51.436;6.972;2022-07-23T00:08:43;18.20;99.90
2012;DHT22;1009;51.436;6.972;2022-07-23T00:11:10;18.20;99.90
2012;DHT22;1009;51.436;6.972;2022-07-23T00:13:37;18.10;99.90
2012;DHT22;1009;51.436;6.972;2022-07-23T00:16:11;18.10;99.90
2012;DHT22;1009;51.436;6.972;2022-07-23T00:18:40;18.10;99.90
2012;DHT22;1009;51.436;6.972;2022-07-23T00:21:07;18.20;99.90
2012;DHT22;1009;51.436;6.972;2022-07-23T00:23:34;18.10;99.90
2012;DHT22;1009;51.436;6.972;2022-07-23T00:26:01;18.10;99.90
2012;DHT22;1009;51.436;6.972;2022-07-23T00:28:27;18.10;99.90
2012;DHT22;1009;51.436;6.972;2022-07-23T00:30:54;18.10;99.90
2012;DHT22;1009;51.436;6.972;2022-07-23T00:33:22;18.10;99.90
2012;DHT22;1009;51.436;6.972;2022-07-23T00:35:52;18.10;99.90
2012;DHT22;1009;51.436;6.972;2022-07-23T00:38:19;18.10;99.90
2012;DHT22;1009;51.436;6.972;2022-07-23T00:40:46;18.10;99.90
2012;DHT22;1009;51.436;6.972;2022-07-23T00:43:12;18.10;99.90
2012;DHT22;1009;51.436;6.972;2022-07-23T00:45:39;18.10;99.90
2012;DHT22;1009;51.436;6.972;2022-07-23T00:48:06;18.10;99.90
2012;DHT22;1009;51.436;6.972;2022-07-23T00:50:35;18.00;99.90
2012;DHT22;1009;51.436;6.972;2022-07-23T00:53:02;18.00;99.90
2012;DHT22;1009;51.436;6.972;2022-07-23T00:55:28;18.00;99.90
2012;DHT22;1009;51.436;6.972;2022-07-23T00:57:57;17.90;99.90
2012;DHT22;1009;51.436;6.972;2022-07-23T01:00:23;17.90;99.90
2012;DHT22;1009;51.436;6.972;2022-07-23T01:02:50;17.80;99.90
2012;DHT22;1009;51.436;6.972;2022-07-23T01:05:17;17.80;99.90
2012;DHT22;1009;51.436;6.972;2022-07-23T01:07:48;17.70;99.90
2012;DHT22;1009;51.436;6.972;2022-07-23T01:10:16;17.60;99.90
2012;DHT22;1009;51.436;6.972;2022-07-23T01:12:58;17.60;99.90
2012;DHT22;1009;51.436;6.972;2022-07-23T01:15:26;17.50;99.90
2012;DHT22;1009;51.436;6.972;2022-07-23T01:17:52;17.60;99.90
2012;DHT22;1009;51.436;6.972;2022-07-23T01:20:20;17.60;99.90
2012;DHT22;1009;51.436;6.972;2022-07-23T01:22:48;17.60;99.90
2012;DHT22;1009;51.436;6.972;2022-07-23T01:25:15;17.50;99.90
2012;DHT22;1009;51.436;6.972;2022-07-23T01:27:42;17.70;99.90
2012;DHT22;1009;51.436;6.972;2022-07-23T01:30:11;17.80;99.90
2012;DHT22;1009;51.436;6.972;2022-07-23T01:32:38;17.80;99.90
2012;DHT22;1009;51.436;6.972;2022-07-23T01:35:06;17.80;99.90
2012;DHT22;1009;51.436;6.972;2022-07-23T01:37:33;17.80;99.90
2012;DHT22;1009;51.436;6.972;2022-07-23T01:40:02;17.80;99.90
2012;DHT22;1009;51.436;6.972;2022-07-23T01:42:29;17.90;99.90
2012;DHT22;1009;51.436;6.972;2022-07-23T01:44:56;17.90;99.90
2012;DHT22;1009;51.436;6.972;2022-07-23T01:47:23;17.90;99.90
2012;DHT22;1009;51.436;6.972;2022-07-23T01:49:50;17.90;99.90
2012;DHT22;1009;51.436;6.972;2022-07-23T01:52:17;17.90;99.90
2012;DHT22;1009;51.436;6.972;2022-07-23T01:54:43;17.80;99.90
2012;DHT22;1009;51.436;6.972;2022-07-23T01:57:11;17.90;99.90
2012;DHT22;1009;51.436;6.972;2022-07-23T01:59:38;17.80;99.90
2012;DHT22;1009;51.436;6.972;2022-07-23T02:02:05;17.80;99.90
2012;DHT22;1009;51.436;6.972;2022-07-23T02:04:32;17.80;99.90
2012;DHT22;1009;51.436;6.972;2022-07-23T02:07:02;17.60;99.90
2012;DHT22;1009;51.436;6.972;2022-07-23T02:09:32;17.60;99.90
2012;DHT22;1009;51.436;6.972;2022-07-23T02:12:00;17.60;99.90
2012;DHT22;1009;51.436;6.972;2022-07-23T02:14:28;17.70;99.90
2012;DHT22;1009;51.436;6.972;2022-07-23T02:16:55;17.80;99.90
2012;DHT22;1009;51.436;6.972;2022-07-23T02:19:22;17.80;99.90
2012;DHT22;1009;51.436;6.972;2022-07-23T02:21:48;17.80;99.90
2012;DHT22;1009;51.436;6.972;2022-07-23T02:24:15;17.90;99.90
2012;DHT22;1009;51.436;6.972;2022-07-23T02:26:45;17.80;99.90
2012;DHT22;1009;51.436;6.972;2022-07-23T02:29:12;17.70;99.90
2012;DHT22;1009;51.436;6.972;2022-07-23T02:31:40;17.80;99.90
2012;DHT22;1009;51.436;6.972;2022-07-23T02:34:07;17.80;99.90
2012;DHT22;1009;51.436;6.972;2022-07-23T02:36:37;17.70;99.90
2012;DHT22;1009;51.436;6.972;2022-07-23T02:39:03;17.60;99.90
2012;DHT22;1009;51.436;6.972;2022-07-23T02:41:33;17.50;99.90
2012;DHT22;1009;51.436;6.972;2022-07-23T02:44:00;17.50;99.90
2012;DHT22;1009;51.436;6.972;2022-07-23T02:46:27;17.60;99.90
2012;DHT22;1009;51.436;6.972;2022-07-23T02:48:55;17.60;99.90
2012;DHT22;1009;51.436;6.972;2022-07-23T02:51:21;17.60;99.90
2012;DHT22;1009;51.436;6.972;2022-07-23T02:53:48;17.60;99.90
2012;DHT22;1009;51.436;6.972;2022-07-23T02:56:15;17.60;99.90
2012;DHT22;1009;51.436;6.972;2022-07-23T02:58:42;17.50;99.90
2012;DHT22;1009;51.436;6.972;2022-07-23T03:01:09;17.60;99.90
2012;DHT22;1009;51.436;6.972;2022-07-23T03:03:35;17.50;99.90
2012;DHT22;1009;51.436;6.972;2022-07-23T03:06:04;17.60;99.90
2012;DHT22;1009;51.436;6.972;2022-07-23T03:08:31;17.60;99.90
2012;DHT22;1009;51.436;6.972;2022-07-23T03:11:01;17.50;99.90
2012;DHT22;1009;51.436;6.972;2022-07-23T03:13:28;17.40;99.90
2012;DHT22;1009;51.436;6.972;2022-07-23T03:15:55;17.40;99.90
2012;DHT22;1009;51.436;6.972;2022-07-23T03:18:21;17.40;99.90
2012;DHT22;1009;51.436;6.972;2022-07-23T03:20:48;17.30;99.90
2012;DHT22;1009;51.436;6.972;2022-07-23T03:23:17;17.30;99.90
2012;DHT22;1009;51.436;6.972;2022-07-23T03:25:44;17.30;99.90
2012;DHT22;1009;51.436;6.972;2022-07-23T03:28:12;17.30;99.90
2012;DHT22;1009;51.436;6.972;2022-07-23T03:30:39;17.30;99.90
2012;DHT22;1009;51.436;6.972;2022-07-23T03:33:06;17.40;99.90
2012;DHT22;1009;51.436;6.972;2022-07-23T03:35:33;17.40;99.90
2012;DHT22;1009;51.436;6.972;2022-07-23T03:38:00;17.30;99.90
2012;DHT22;1009;51.436;6.972;2022-07-23T03:40:28;17.10;99.90
2012;DHT22;1009;51.436;6.972;2022-07-23T03:42:58;17.00;99.90
2012;DHT22;1009;51.436;6.972;2022-07-23T03:45:24;17.00;99.90
2012;DHT22;1009;51.436;6.972;2022-07-23T03:47:54;17.00;99.90
2012;DHT22;1009;51.436;6.972;2022-07-23T03:50:21;17.00;99.90
2012;DHT22;1009;51.436;6.972;2022-07-23T03:52:51;17.10;99.90
2012;DHT22;1009;51.436;6.972;2022-07-23T03:55:19;17.00;99.90
2012;DHT22;1009;51.436;6.972;2022-07-23T03:57:47;17.10;99.90
2012;DHT22;1009;51.436;6.972;2022-07-23T04:00:14;17.00;99.90
2012;DHT22;1009;51.436;6.972;2022-07-23T04:02:41;17.00;99.90
2012;DHT22;1009;51.436;6.972;2022-07-23T04:05:08;16.90;99.90
2012;DHT22;1009;51.436;6.972;2022-07-23T04:07:35;16.90;99.90
2012;DHT22;1009;51.436;6.972;2022-07-23T04:10:02;17.00;99.90
2012;DHT22;1009;51.436;6.972;2022-07-23T04:12:34;17.00;99.90
2012;DHT22;1009;51.436;6.972;2022-07-23T04:15:03;16.90;99.90
2012;DHT22;1009;51.436;6.972;2022-07-23T04:17:30;17.00;99.90
2012;DHT22;1009;51.436;6.972;2022-07-23T04:20:00;17.00;99.90
2012;DHT22;1009;51.436;6.972;2022-07-23T04:22:28;17.00;99.90
2012;DHT22;1009;51.436;6.972;2022-07-23T04:24:55;17.00;99.90
2012;DHT22;1009;51.436;6.972;2022-07-23T04:27:22;17.00;99.90
2012;DHT22;1009;51.436;6.972;2022-07-23T04:29:48;17.00;99.90
2012;DHT22;1009;51.436;6.972;2022-07-23T04:32:16;16.90;99.90
2012;DHT22;1009;51.436;6.972;2022-07-23T04:34:43;16.80;99.90
2012;DHT22;1009;51.436;6.972;2022-07-23T04:37:12;16.70;99.90
2012;DHT22;1009;51.436;6.972;2022-07-23T04:39:39;16.70;99.90
2012;DHT22;1009;51.436;6.972;2022-07-23T04:42:06;16.70;99.90
2012;DHT22;1009;51.436;6.972;2022-07-23T04:44:33;16.70;99.90
2012;DHT22;1009;51.436;6.972;2022-07-23T04:46:59;16.80;99.90
2012;DHT22;1009;51.436;6.972;2022-07-23T04:49:28;16.90;99.90
2012;DHT22;1009;51.436;6.972;2022-07-23T04:51:54;16.90;99.90
2012;DHT22;1009;51.436;6.972;2022-07-23T04:54:21;16.90;99.90
2012;DHT22;1009;51.436;6.972;2022-07-23T04:56:48;17.00;99.90
2012;DHT22;1009;51.436;6.972;2022-07-23T04:59:14;16.90;99.90
2012;DHT22;1009;51.436;6.972;2022-07-23T05:01:41;16.90;99.90
2012;DHT22;1009;51.436;6.972;2022-07-23T05:04:08;17.00;99.90
2012;DHT22;1009;51.436;6.972;2022-07-23T05:06:36;17.10;99.90
2012;DHT22;1009;51.436;6.972;2022-07-23T05:09:03;17.20;99.90
2012;DHT22;1009;51.436;6.972;2022-07-23T05:11:29;17.20;99.90
2012;DHT22;1009;51.436;6.972;2022-07-23T05:13:59;17.10;99.90
2012;DHT22;1009;51.436;6.972;2022-07-23T05:16:26;17.10;99.90
2012;DHT22;1009;51.436;6.972;2022-07-23T05:18:52;17.10;99.90
2012;DHT22;1009;51.436;6.972;2022-07-23T05:21:19;17.20;99.90
2012;DHT22;1009;51.436;6.972;2022-07-23T05:23:47;17.30;99.90
2012;DHT22;1009;51.436;6.972;2022-07-23T05:26:14;17.40;99.90
2012;DHT22;1009;51.436;6.972;2022-07-23T05:28:47;17.40;99.90
2012;DHT22;1009;51.436;6.972;2022-07-23T05:31:14;17.40;99.90
2012;DHT22;1009;51.436;6.972;2022-07-23T05:33:40;17.40;99.90
2012;DHT22;1009;51.436;6.972;2022-07-23T05:36:08;17.40;99.90
2012;DHT22;1009;51.436;6.972;2022-07-23T05:38:35;17.50;99.90
2012;DHT22;1009;51.436;6.972;2022-07-23T05:41:03;17.50;99.90
2012;DHT22;1009;51.436;6.972;2022-07-23T05:43:30;17.70;99.90
2012;DHT22;1009;51.436;6.972;2022-07-23T05:45:57;17.60;99.90
2012;DHT22;1009;51.436;6.972;2022-07-23T05:48:23;17.70;99.90
2012;DHT22;1009;51.436;6.972;2022-07-23T05:50:50;17.70;99.90
2012;DHT22;1009;51.436;6.972;2022-07-23T05:53:17;17.80;99.90
2012;DHT22;1009;51.436;6.972;2022-07-23T05:55:44;17.90;99.90
2012;DHT22;1009;51.436;6.972;2022-07-23T05:58:12;17.90;99.90
2012;DHT22;1009;51.436;6.972;2022-07-23T06:00:38;18.00;99.90
2012;DHT22;1009;51.436;6.972;2022-07-23T06:03:05;18.10;99.90
2012;DHT22;1009;51.436;6.972;2022-07-23T06:05:32;18.10;99.90
2012;DHT22;1009;51.436;6.972;2022-07-23T06:07:59;18.20;99.90
2012;DHT22;1009;51.436;6.972;2022-07-23T06:10:26;18.30;99.90
2012;DHT22;1009;51.436;6.972;2022-07-23T06:12:53;18.40;99.90
2012;DHT22;1009;51.436;6.972;2022-07-23T06:15:21;18.40;99.90
2012;DHT22;1009;51.436;6.972;2022-07-23T06:17:47;18.50;99.90
2012;DHT22;1009;51.436;6.972;2022-07-23T06:20:14;18.50;99.90
2012;DHT22;1009;51.436;6.972;2022-07-23T06:22:41;18.60;99.90
2012;DHT22;1009;51.436;6.972;2022-07-23T06:25:08;18.60;99.90
2012;DHT22;1009;51.436;6.972;2022-07-23T06:27:35;18.70;99.90
2012;DHT22;1009;51.436;6.972;2022-07-23T06:30:02;18.80;99.90
2012;DHT22;1009;51.436;6.972;2022-07-23T06:32:30;18.90;99.90
2012;DHT22;1009;51.436;6.972;2022-07-23T06:34:57;19.00;99.90
2012;DHT22;1009;51.436;6.972;2022-07-23T06:37:24;18.80;99.90
2012;DHT22;1009;51.436;6.972;2022-07-23T06:39:50;18.80;99.90
2012;DHT22;1009;51.436;6.972;2022-07-23T06:42:17;18.80;99.90
2012;DHT22;1009;51.436;6.972;2022-07-23T06:44:44;18.90;99.90
2012;DHT22;1009;51.436;6.972;2022-07-23T06:47:11;19.10;99.90
2012;DHT22;1009;51.436;6.972;2022-07-23T06:49:39;19.20;99.90
2012;DHT22;1009;51.436;6.972;2022-07-23T06:52:06;19.10;99.90
2012;DHT22;1009;51.436;6.972;2022-07-23T06:54:33;19.00;99.90
2012;DHT22;1009;51.436;6.972;2022-07-23T06:57:00;18.90;99.90
2012;DHT22;1009;51.436;6.972;2022-07-23T06:59:27;18.70;99.90
2012;DHT22;1009;51.436;6.972;2022-07-23T07:01:54;18.60;99.90
2012;DHT22;1009;51.436;6.972;2022-07-23T07:04:20;18.50;99.90
2012;DHT22;1009;51.436;6.972;2022-07-23T07:06:49;18.40;99.90
2012;DHT22;1009;51.436;6.972;2022-07-23T07:09:15;18.60;99.90
2012;DHT22;1009;51.436;6.972;2022-07-23T07:11:43;18.80;99.90
2012;DHT22;1009;51.436;6.972;2022-07-23T07:14:10;19.00;99.90
2012;DHT22;1009;51.436;6.972;2022-07-23T07:16:37;19.00;99.90
2012;DHT22;1009;51.436;6.972;2022-07-23T07:19:03;19.20;99.90
2012;DHT22;1009;51.436;6.972;2022-07-23T07:21:30;19.20;99.90
2012;DHT22;1009;51.436;6.972;2022-07-23T07:23:58;19.20;99.90
2012;DHT22;1009;51.436;6.972;2022-07-23T07:26:25;19.30;99.90
2012;DHT22;1009;51.436;6.972;2022-07-23T07:28:52;19.40;99.90
2012;DHT22;1009;51.436;6.972;2022-07-23T07:31:19;19.50;99.90
2012;DHT22;1009;51.436;6.972;2022-07-23T07:33:45;19.70;99.90
2012;DHT22;1009;51.436;6.972;2022-07-23T07:36:13;19.40;99.90
2012;DHT22;1009;51.436;6.972;2022-07-23T07:38:39;19.30;99.90
2012;DHT22;1009;51.436;6.972;2022-07-23T07:41:08;19.30;99.90
2012;DHT22;1009;51.436;6.972;2022-07-23T07:43:35;19.50;99.90
2012;DHT22;1009;51.436;6.972;2022-07-23T07:46:02;19.70;99.90
2012;DHT22;1009;51.436;6.972;2022-07-23T07:48:29;19.80;99.90
2012;DHT22;1009;51.436;6.972;2022-07-23T07:50:56;19.90;99.90
2012;DHT22;1009;51.436;6.972;2022-07-23T07:53:25;20.00;99.90
2012;DHT22;1009;51.436;6.972;2022-07-23T07:55:52;20.00;99.90
2012;DHT22;1009;51.436;6.972;2022-07-23T07:58:20;20.00;99.90
2012;DHT22;1009;51.436;6.972;2022-07-23T08:00:47;20.20;99.90
2012;DHT22;1009;51.436;6.972;2022-07-23T08:03:14;20.40;99.90
2012;DHT22;1009;51.436;6.972;2022-07-23T08:05:46;20.50;99.90
2012;DHT22;1009;51.436;6.972;2022-07-23T08:08:13;20.40;99.90
2012;DHT22;1009;51.436;6.972;2022-07-23T08:10:41;20.40;99.90
2012;DHT22;1009;51.436;6.972;2022-07-23T08:13:12;20.30;99.90
2012;DHT22;1009;51.436;6.972;2022-07-23T08:15:41;20.20;99.90
2012;DHT22;1009;51.436;6.972;2022-07-23T08:18:08;20.20;99.90
2012;DHT22;1009;51.436;6.972;2022-07-23T08:20:35;20.10;99.90
2012;DHT22;1009;51.436;6.972;2022-07-23T08:23:04;19.90;99.90
2012;DHT22;1009;51.436;6.972;2022-07-23T08:25:32;19.90;99.90
2012;DHT22;1009;51.436;6.972;2022-07-23T08:28:00;20.20;99.90
2012;DHT22;1009;51.436;6.972;2022-07-23T08:30:29;20.20;99.90
2012;DHT22;1009;51.436;6.972;2022-07-23T08:32:59;20.10;99.90
2012;DHT22;1009;51.436;6.972;2022-07-23T08:35:30;20.20;99.90
2012;DHT22;1009;51.436;6.972;2022-07-23T08:37:58;20.30;99.90
2012;DHT22;1009;51.436;6.972;2022-07-23T08:40:26;20.30;99.90
2012;DHT22;1009;51.436;6.972;2022-07-23T08:42:53;20.40;99.90
2012;DHT22;1009;51.436;6.972;2022-07-23T08:45:21;20.50;99.90
2012;DHT22;1009;51.436;6.972;2022-07-23T08:47:54;20.60;99.90
2012;DHT22;1009;51.436;6.972;2022-07-23T08:50:24;20.70;99.90
2012;DHT22;1009;51.436;6.972;2022-07-23T08:52:52;20.70;99.90
2012;DHT22;1009;51.436;6.972;2022-07-23T08:55:22;20.80;99.90
2012;DHT22;1009;51.436;6.972;2022-07-23T08:57:50;21.00;99.90
2012;DHT22;1009;51.436;6.972;2022-07-23T09:00:19;21.00;99.90
2012;DHT22;1009;51.436;6.972;2022-07-23T09:02:46;21.10;99.90
2012;DHT22;1009;51.436;6.972;2022-07-23T09:05:15;21.10;99.90
2012;DHT22;1009;51.436;6.972;2022-07-23T09:08:06;21.30;99.90
2012;DHT22;1009;51.436;6.972;2022-07-23T09:10:44;21.20;99.90
2012;DHT22;1009;51.436;6.972;2022-07-23T09:13:30;21.20;99.90
2012;DHT22;1009;51.436;6.972;2022-07-23T09:15:58;21.60;99.90
2012;DHT22;1009;51.436;6.972;2022-07-23T09:18:38;21.80;99.90
2012;DHT22;1009;51.436;6.972;2022-07-23T09:21:22;21.90;99.90
2012;DHT22;1009;51.436;6.972;2022-07-23T09:23:56;21.90;99.90
2012;DHT22;1009;51.436;6.972;2022-07-23T09:26:36;22.20;99.90
2012;DHT22;1009;51.436;6.972;2022-07-23T09:29:05;22.50;99.90
2012;DHT22;1009;51.436;6.972;2022-07-23T09:31:41;22.50;99.90
2012;DHT22;1009;51.436;6.972;2022-07-23T09:34:10;22.30;99.90
2012;DHT22;1009;51.436;6.972;2022-07-23T09:36:37;22.30;99.90
2012;DHT22;1009;51.436;6.972;2022-07-23T09:39:06;22.50;99.90
2012;DHT22;1009;51.436;6.972;2022-07-23T09:41:38;22.70;99.90
2012;DHT22;1009;51.436;6.972;2022-07-23T09:44:13;22.90;99.90
2012;DHT22;1009;51.436;6.972;2022-07-23T09:46:42;22.90;99.90
2012;DHT22;1009;51.436;6.972;2022-07-23T09:49:21;23.10;99.90
2012;DHT22;1009;51.436;6.972;2022-07-23T09:51:53;22.90;99.90
2012;DHT22;1009;51.436;6.972;2022-07-23T09:54:33;22.50;99.90
2012;DHT22;1009;51.436;6.972;2022-07-23T09:57:04;22.60;99.90
2012;DHT22;1009;51.436;6.972;2022-07-23T09:59:34;22.70;99.90
2012;DHT22;1009;51.436;6.972;2022-07-23T10:02:02;22.70;99.90
2012;DHT22;1009;51.436;6.972;2022-07-23T10:04:30;22.80;99.90
2012;DHT22;1009;51.436;6.972;2022-07-23T10:06:59;23.00;99.90
2012;DHT22;1009;51.436;6.972;2022-07-23T10:09:32;23.10;99.90
2012;DHT22;1009;51.436;6.972;2022-07-23T10:12:01;23.10;99.90
2012;DHT22;1009;51.436;6.972;2022-07-23T10:14:38;22.80;99.90
2012;DHT22;1009;51.436;6.972;2022-07-23T10:17:05;22.80;99.90
2012;DHT22;1009;51.436;6.972;2022-07-23T10:19:38;23.00;99.90
2012;DHT22;1009;51.436;6.972;2022-07-23T10:22:08;23.10;99.90
2012;DHT22;1009;51.436;6.972;2022-07-23T10:24:45;23.10;99.90
2012;DHT22;1009;51.436;6.972;2022-07-23T10:27:47;23.20;99.90
2012;DHT22;1009;51.436;6.972;2022-07-23T10:30:20;23.50;99.90
2012;DHT22;1009;51.436;6.972;2022-07-23T10:32:56;23.80;99.90
2012;DHT22;1009;51.436;6.972;2022-07-23T10:35:31;24.00;99.90
2012;DHT22;1009;51.436;6.972;2022-07-23T10:38:10;24.00;99.90
2012;DHT22;1009;51.436;6.972;2022-07-23T10:40:53;24.00;99.90
2012;DHT22;1009;51.436;6.972;2022-07-23T10:43:20;24.20;99.90
2012;DHT22;1009;51.436;6.972;2022-07-23T10:45:47;24.20;99.90
2012;DHT22;1009;51.436;6.972;2022-07-23T10:48:16;24.20;99.90
2012;DHT22;1009;51.436;6.972;2022-07-23T10:50:44;24.30;99.90
2012;DHT22;1009;51.436;6.972;2022-07-23T10:53:55;23.90;99.90
2012;DHT22;1009;51.436;6.972;2022-07-23T10:57:03;23.80;99.90
2012;DHT22;1009;51.436;6.972;2022-07-23T10:59:44;24.10;99.90
2012;DHT22;1009;51.436;6.972;2022-07-23T11:02:33;24.30;99.90
2012;DHT22;1009;51.436;6.972;2022-07-23T11:05:04;24.40;99.90
2012;DHT22;1009;51.436;6.972;2022-07-23T11:07:34;24.50;99.90
2012;DHT22;1009;51.436;6.972;2022-07-23T11:10:01;24.70;99.90
2012;DHT22;1009;51.436;6.972;2022-07-23T11:12:34;24.70;99.90
2012;DHT22;1009;51.436;6.972;2022-07-23T11:15:04;24.70;99.90
2012;DHT22;1009;51.436;6.972;2022-07-23T11:20:31;24.50;99.90
2012;DHT22;1009;51.436;6.972;2022-07-23T11:22:58;24.80;99.90
2012;DHT22;1009;51.436;6.972;2022-07-23T11:25:32;25.00;99.90
2012;DHT22;1009;51.436;6.972;2022-07-23T11:28:13;25.20;99.90
2012;DHT22;1009;51.436;6.972;2022-07-23T11:30:42;25.30;99.90
2012;DHT22;1009;51.436;6.972;2022-07-23T11:33:20;25.20;99.90
2012;DHT22;1009;51.436;6.972;2022-07-23T11:35:49;25.10;99.90
2012;DHT22;1009;51.436;6.972;2022-07-23T11:38:25;25.20;99.90
2012;DHT22;1009;51.436;6.972;2022-07-23T11:40:54;25.30;99.90
2012;DHT22;1009;51.436;6.972;2022-07-23T11:43:26;25.10;99.90
2012;DHT22;1009;51.436;6.972;2022-07-23T11:45:54;24.90;99.90
2012;DHT22;1009;51.436;6.972;2022-07-23T11:48:24;24.90;99.90
2012;DHT22;1009;51.436;6.972;2022-07-23T11:50:59;25.00;99.90
2012;DHT22;1009;51.436;6.972;2022-07-23T11:53:27;25.40;99.90
2012;DHT22;1009;51.436;6.972;2022-07-23T11:56:02;25.70;99.90
2012;DHT22;1009;51.436;6.972;2022-07-23T11:58:30;26.00;99.90
2012;DHT22;1009;51.436;6.972;2022-07-23T12:00:57;26.30;99.90
2012;DHT22;1009;51.436;6.972;2022-07-23T12:03:24;26.30;97.80
2012;DHT22;1009;51.436;6.972;2022-07-23T12:05:56;26.40;99.90
2012;DHT22;1009;51.436;6.972;2022-07-23T12:08:23;26.10;99.90
2012;DHT22;1009;51.436;6.972;2022-07-23T12:10:50;25.70;99.90
2012;DHT22;1009;51.436;6.972;2022-07-23T12:13:19;25.70;99.90
2012;DHT22;1009;51.436;6.972;2022-07-23T12:15:49;25.70;99.90
2012;DHT22;1009;51.436;6.972;2022-07-23T12:18:18;25.90;99.90
2012;DHT22;1009;51.436;6.972;2022-07-23T12:20:48;26.30;99.90
2012;DHT22;1009;51.436;6.972;2022-07-23T12:23:18;26.00;98.10
2012;DHT22;1009;51.436;6.972;2022-07-23T12:25:45;25.70;99.90
2012;DHT22;1009;51.436;6.972;2022-07-23T12:28:14;25.60;99.90
2012;DHT22;1009;51.436;6.972;2022-07-23T12:30:44;25.70;99.80
2012;DHT22;1009;51.436;6.972;2022-07-23T12:33:14;26.10;99.90
2012;DHT22;1009;51.436;6.972;2022-07-23T12:35:43;26.20;99.90
2012;DHT22;1009;51.436;6.972;2022-07-23T12:38:12;26.20;94.70
2012;DHT22;1009;51.436;6.972;2022-07-23T12:40:44;26.00;99.00
2012;DHT22;1009;51.436;6.972;2022-07-23T12:43:18;26.20;99.90
2012;DHT22;1009;51.436;6.972;2022-07-23T12:45:47;26.00;99.90
2012;DHT22;1009;51.436;6.972;2022-07-23T12:48:24;25.70;98.90
2012;DHT22;1009;51.436;6.972;2022-07-23T12:50:56;25.70;95.60
2012;DHT22;1009;51.436;6.972;2022-07-23T12:53:25;25.80;99.30
2012;DHT22;1009;51.436;6.972;2022-07-23T12:55:58;26.30;99.90
2012;DHT22;1009;51.436;6.972;2022-07-23T12:58:25;26.00;99.90
2012;DHT22;1009;51.436;6.972;2022-07-23T13:00:58;26.00;99.10
2012;DHT22;1009;51.436;6.972;2022-07-23T13:03:30;26.10;99.90
2012;DHT22;1009;51.436;6.972;2022-07-23T13:05:58;26.30;95.40
2012;DHT22;1009;51.436;6.972;2022-07-23T13:08:27;26.60;95.90
2012;DHT22;1009;51.436;6.972;2022-07-23T13:10:55;26.80;90.20
2012;DHT22;1009;51.436;6.972;2022-07-23T13:13:23;27.10;90.40
2012;DHT22;1009;51.436;6.972;2022-07-23T13:15:51;27.20;89.70
2012;DHT22;1009;51.436;6.972;2022-07-23T13:18:18;27.10;89.10
2012;DHT22;1009;51.436;6.972;2022-07-23T13:20:47;26.90;91.30
2012;DHT22;1009;51.436;6.972;2022-07-23T13:23:15;27.00;91.30
2012;DHT22;1009;51.436;6.972;2022-07-23T13:25:42;27.30;99.90
2012;DHT22;1009;51.436;6.972;2022-07-23T13:28:09;27.40;96.30
2012;DHT22;1009;51.436;6.972;2022-07-23T13:30:36;27.30;96.10
2012;DHT22;1009;51.436;6.972;2022-07-23T13:33:03;26.60;94.00
2012;DHT22;1009;51.436;6.972;2022-07-23T13:35:30;26.50;98.30
2012;DHT22;1009;51.436;6.972;2022-07-23T13:37:58;26.10;91.80
2012;DHT22;1009;51.436;6.972;2022-07-23T13:40:25;25.40;97.80
2012;DHT22;1009;51.436;6.972;2022-07-23T13:42:52;24.90;99.90
2012;DHT22;1009;51.436;6.972;2022-07-23T13:45:19;25.00;99.90
2012;DHT22;1009;51.436;6.972;2022-07-23T13:47:46;25.20;99.90
2012;DHT22;1009;51.436;6.972;2022-07-23T13:50:13;25.60;99.90
2012;DHT22;1009;51.436;6.972;2022-07-23T13:52:41;25.90;99.10
2012;DHT22;1009;51.436;6.972;2022-07-23T13:55:09;26.00;99.90
2012;DHT22;1009;51.436;6.972;2022-07-23T13:57:36;26.40;99.90
2012;DHT22;1009;51.436;6.972;2022-07-23T14:00:04;26.10;99.90
2012;DHT22;1009;51.436;6.972;2022-07-23T14:02:32;25.90;99.90
2012;DHT22;1009;51.436;6.972;2022-07-23T14:04:59;25.80;99.90
2012;DHT22;1009;51.436;6.972;2022-07-23T14:07:26;25.90;99.90
2012;DHT22;1009;51.436;6.972;2022-07-23T14:09:53;25.90;94.60
2012;DHT22;1009;51.436;6.972;2022-07-23T14:12:21;26.10;99.90
2012;DHT22;1009;51.436;6.972;2022-07-23T14:14:47;26.50;99.90
2012;DHT22;1009;51.436;6.972;2022-07-23T14:17:14;26.60;92.90
2012;DHT22;1009;51.436;6.972;2022-07-23T14:19:41;26.20;95.70
2012;DHT22;1009;51.436;6.972;2022-07-23T14:22:08;26.00;92.20
2012;DHT22;1009;51.436;6.972;2022-07-23T14:24:35;26.30;88.50
2012;DHT22;1009;51.436;6.972;2022-07-23T14:27:03;26.40;91.00
2012;DHT22;1009;51.436;6.972;2022-07-23T14:29:32;26.40;88.30
2012;DHT22;1009;51.436;6.972;2022-07-23T14:31:59;26.60;83.70
2012;DHT22;1009;51.436;6.972;2022-07-23T14:34:26;26.30;88.00
2012;DHT22;1009;51.436;6.972;2022-07-23T14:36:53;26.00;92.30
2012;DHT22;1009;51.436;6.972;2022-07-23T14:39:20;26.00;97.30
2012;DHT22;1009;51.436;6.972;2022-07-23T14:41:47;26.20;92.90
2012;DHT22;1009;51.436;6.972;2022-07-23T14:44:13;26.30;93.40
2012;DHT22;1009;51.436;6.972;2022-07-23T14:46:42;26.00;90.70
2012;DHT22;1009;51.436;6.972;2022-07-23T14:49:09;25.90;97.60
2012;DHT22;1009;51.436;6.972;2022-07-23T14:51:36;25.70;99.90
2012;DHT22;1009;51.436;6.972;2022-07-23T14:54:03;25.40;99.90
2012;DHT22;1009;51.436;6.972;2022-07-23T14:56:30;25.30;99.90
2012;DHT22;1009;51.436;6.972;2022-07-23T14:58:56;25.50;99.90
2012;DHT22;1009;51.436;6.972;2022-07-23T15:01:23;25.50;99.90
2012;DHT22;1009;51.436;6.972;2022-07-23T15:03:51;25.30;99.90
2012;DHT22;1009;51.436;6.972;2022-07-23T15:06:18;25.10;99.90
2012;DHT22;1009;51.436;6.972;2022-07-23T15:08:45;25.00;99.30
2012;DHT22;1009;51.436;6.972;2022-07-23T15:11:12;24.90;99.90
2012;DHT22;1009;51.436;6.972;2022-07-23T15:13:39;24.90;99.90
2012;DHT22;1009;51.436;6.972;2022-07-23T15:16:07;24.90;99.90
2012;DHT22;1009;51.436;6.972;2022-07-23T15:18:35;25.30;99.90
2012;DHT22;1009;51.436;6.972;2022-07-23T15:21:03;25.60;99.90
2012;DHT22;1009;51.436;6.972;2022-07-23T15:23:30;25.90;94.70
2012;DHT22;1009;51.436;6.972;2022-07-23T15:25:57;26.20;93.10
2012;DHT22;1009;51.436;6.972;2022-07-23T15:28:24;26.10;99.80
2012;DHT22;1009;51.436;6.972;2022-07-23T15:30:51;26.00;93.60
2012;DHT22;1009;51.436;6.972;2022-07-23T15:33:18;25.80;95.10
2012;DHT22;1009;51.436;6.972;2022-07-23T15:35:45;25.70;92.60
2012;DHT22;1009;51.436;6.972;2022-07-23T15:38:14;25.40;94.20
2012;DHT22;1009;51.436;6.972;2022-07-23T15:40:41;25.30;96.90
2012;DHT22;1009;51.436;6.972;2022-07-23T15:43:08;25.20;94.90
2012;DHT22;1009;51.436;6.972;2022-07-23T15:45:34;25.30;98.20
2012;DHT22;1009;51.436;6.972;2022-07-23T15:48:01;25.30;97.40
2012;DHT22;1009;51.436;6.972;2022-07-23T15:50:28;25.30;95.20
2012;DHT22;1009;51.436;6.972;2022-07-23T15:52:55;25.30;97.80
2012;DHT22;1009;51.436;6.972;2022-07-23T15:55:24;25.10;98.00
2012;DHT22;1009;51.436;6.972;2022-07-23T15:57:51;25.10;96.90
2012;DHT22;1009;51.436;6.972;2022-07-23T16:00:18;25.10;98.90
2012;DHT22;1009;51.436;6.972;2022-07-23T16:02:45;25.10;96.40
2012;DHT22;1009;51.436;6.972;2022-07-23T16:05:12;25.00;95.30
2012;DHT22;1009;51.436;6.972;2022-07-23T16:07:38;25.00;97.70
2012;DHT22;1009;51.436;6.972;2022-07-23T16:10:07;25.00;95.60
2012;DHT22;1009;51.436;6.972;2022-07-23T16:12:36;24.90;95.00
2012;DHT22;1009;51.436;6.972;2022-07-23T16:15:04;24.80;95.20